Flight Track Log - Related Links

Times and Time Zones

All times are in EST time to prevent confusion due to time zone crossing. See the FLG4262 flight status page for this flight to view local times or setup timezone preferences in your user account.

Time Position Orientation Groundspeed Altitude Reporting Facility
EST Latitude Longitude Course Direction KTS MPH feet Rate Location/Type
Wed 03:52:22 PM 42.2094 -83.3506 174° South 137 158 1,300  Level Cleveland Center
Wed 03:53:17 PM 42.1658 -83.3444 174° South 196 226 3,500 2,160 Climbing Cleveland Center
Wed 03:54:02 PM 42.1247 -83.3303 166° South 206 237 4,900 2,187 Climbing Cleveland Center
Wed 03:55:04 PM 42.0786 -83.2361 123° Southeast 285 328 7,400 2,371 Climbing Cleveland Center
Wed 03:56:06 PM 42.0936 -83.1353 79° East 300 345 9,800 1,887 Climbing Cleveland Center
Wed 03:57:08 PM 42.1358 -83.0306 61° Northeast 326 375 11,300 1,488 Climbing Cleveland Center
Wed 03:58:11 PM 42.1853 -82.9106 61° Northeast 363 418 12,900 1,776 Climbing Cleveland Center
Wed 03:59:13 PM 42.2458 -82.7586 62° Northeast 384 442 15,000 1,839 Climbing Cleveland Center
Wed 04:00:15 PM 42.2978 -82.6286 62° Northeast 393 452 16,700 1,403 Climbing Cleveland Center
Wed 04:01:17 PM 42.3500 -82.4981 62° Northeast 397 457 17,900 1,210 Climbing Cleveland Center
Wed 04:02:19 PM 42.3633 -82.3478 83° East 416 479 19,200 1,258 Climbing Cleveland Center
Wed 04:03:21 PM 42.3567 -82.1889 93° East 424 488 20,500 1,210 Climbing Cleveland Center
Wed 04:04:23 PM 42.3494 -82.0042 93° East 425 489 21,700 1,065 Climbing Cleveland Center
Wed 04:05:25 PM 42.3414 -81.8408 94° East 429 494 22,700 919 Climbing Cleveland Center
Wed 04:06:27 PM 42.3353 -81.6753 93° East 432 497 23,600 823 Climbing Cleveland Center
Wed 04:07:29 PM 42.3272 -81.5086 94° East 439 505 24,400 774 Climbing Cleveland Center
Wed 04:08:31 PM 42.3189 -81.3386 94° East 445 512 25,200 672 Climbing Cleveland Center
Wed 04:09:34 PM 42.3100 -81.1681 94° East 450 518 25,800 624 Climbing Cleveland Center
Wed 04:10:36 PM 42.3006 -80.9681 94° East 453 521 26,500 629 Climbing Cleveland Center
Wed 04:11:38 PM 42.2942 -80.7942 93° East 457 526 27,100 581 Climbing Cleveland Center
Wed 04:12:40 PM 42.2958 -80.6261 89° East 446 513 27,700 581 Climbing Cleveland Center
Wed 04:13:42 PM 42.2964 -80.4561 90° East 448 516 28,300 629 Climbing Cleveland Center
Wed 04:14:44 PM 42.2964 -80.2856 90° East 449 517 29,000 339 Climbing Cleveland Center
Wed 04:15:46 PM 42.2956 -80.1158 90° East 449 517 29,000  Level Cleveland Center
Wed 04:16:48 PM 42.2950 -79.9461 90° East 460 529 29,000  Level Cleveland Center
Wed 04:17:50 PM 42.2942 -79.7367 90° East 467 537 29,000  Level Cleveland Center
Wed 04:18:52 PM 42.2931 -79.5608 90° East 471 542 29,000  Level Cleveland Center
Wed 04:19:54 PM 42.2919 -79.3911 90° East 457 526 29,000 -432 Level Cleveland Center
Wed 04:20:57 PM 42.2889 -79.2211 91° East 456 525 28,100 -480 Descending Cleveland Center
Wed 04:21:59 PM 42.2872 -79.0458 91° East 463 533 28,000 -48 Descending Cleveland Center
Wed 04:23:01 PM 42.2850 -78.8653 91° East 462 532 28,000 -194 Level Cleveland Center
Wed 04:24:03 PM 42.2825 -78.6928 91° East 461 531 27,600 -1,065 Descending Cleveland Center
Wed 04:25:05 PM 42.2789 -78.4886 91° East 457 526 25,800 -1,597 Descending Cleveland Center
Wed 04:26:07 PM 42.2764 -78.3203 91° East 454 522 24,300 -1,452 Descending Cleveland Center
Wed 04:27:09 PM 42.2725 -78.1539 92° East 448 516 22,800 -1,452 Descending Cleveland Center
Wed 04:28:11 PM 42.2692 -77.9894 92° East 444 511 21,300 -1,452 Descending Cleveland Center
Wed 04:29:13 PM 42.2658 -77.8261 92° East 442 509 19,800 -1,597 Descending Cleveland Center
Wed 04:30:15 PM 42.2608 -77.6353 92° East 432 497 18,000 -1,452 Descending Cleveland Center
Wed 04:31:17 PM 42.2567 -77.4767 92° East 429 494 16,800 -1,296 Descending Cleveland Center
Wed 04:32:20 PM 42.2528 -77.3231 92° East 421 484 15,300 -864 Descending Cleveland Center
Wed 04:33:22 PM 42.2492 -77.1806 92° East 396 456 15,000 -150 Descending Cleveland Center
Wed 04:34:20 PM 42.2436 -77.0286 93° East 398 458 15,000  Level New York Center
Wed 04:35:20 PM 42.2408 -76.8853 91° East 387 445 15,000 -703 Level New York Center
Wed 04:36:28 PM 42.2344 -76.7247 93° East 370 426 13,500 -1,246 Descending Cleveland Center
Wed 04:37:30 PM 42.2314 -76.6081 92° East 320 368 12,300 -1,355 Descending Cleveland Center
Wed 04:38:32 PM 42.2161 -76.4914 100° East 314 361 10,700 -1,597 Descending Cleveland Center
Wed 04:39:34 PM 42.1942 -76.3706 104° East 320 368 9,000 -1,722 Descending Cleveland Center
Wed 04:40:20 PM 42.1750 -76.2719 105° East 313 360 7,600 -1,585 Descending New York Center
Wed 04:41:20 PM 42.1461 -76.1744 112° Southeast 300 345 6,200 -1,200 Descending New York Center
Wed 04:42:20 PM 42.1206 -76.0914 113° Southeast 266 306 5,200 -1,000 Descending New York Center
Wed 04:43:20 PM 42.1133 -76.0181 98° East 228 262 4,200 -950 Descending New York Center
Wed 04:44:20 PM 42.1306 -75.9581 69° East 187 215 3,300 -900 Descending New York Center
Wed 04:45:20 PM 42.1667 -75.9467 13° North 126 145 2,400 -600 Descending New York Center
Wed 04:46:20 PM 42.1933 -75.9544 348° North 106 122 2,100 -300 Descending New York Center

Login

Don't have an account? Register now (free) for customized features, flight alerts, and more!